createdAt,value
2023-01-31T02:01:28.870Z,3.90
2023-01-31T02:06:33.751Z,3.80
2023-01-31T02:12:33.505Z,3.80
2023-01-31T02:17:34.272Z,3.80
2023-01-31T02:23:00.606Z,3.90
2023-01-31T02:28:35.451Z,3.80
2023-01-31T02:34:11.179Z,3.90
2023-01-31T02:39:38.310Z,3.90
2023-01-31T02:45:54.003Z,3.80
2023-01-31T02:57:45.458Z,3.90
2023-01-31T03:08:43.749Z,3.90
2023-01-31T03:14:43.968Z,3.90
2023-01-31T03:20:27.619Z,3.90
2023-01-31T03:25:56.227Z,3.90
2023-01-31T03:31:17.675Z,3.90
2023-01-31T03:36:42.436Z,3.90
2023-01-31T03:42:03.601Z,3.90
2023-01-31T03:53:13.871Z,4.10
2023-01-31T03:58:29.846Z,4.10
2023-01-31T04:04:29.951Z,4.10
2023-01-31T04:10:06.548Z,4.10
2023-01-31T04:15:36.985Z,4.00
2023-01-31T04:21:20.607Z,4.00
2023-01-31T04:26:40.656Z,4.00
2023-01-31T04:33:36.967Z,3.90
2023-01-31T04:37:57.426Z,3.90
2023-01-31T04:43:55.767Z,3.80
2023-01-31T04:49:03.929Z,3.80
2023-01-31T04:56:03.179Z,3.90
2023-01-31T05:00:22.854Z,3.90
2023-01-31T05:06:05.750Z,3.90
2023-01-31T05:11:36.943Z,4.00
2023-01-31T05:16:55.335Z,3.90
2023-01-31T05:22:40.008Z,3.90
2023-01-31T05:27:59.809Z,3.90
2023-01-31T05:33:42.660Z,3.90
2023-01-31T05:38:58.325Z,3.90
2023-01-31T05:44:09.692Z,3.90
2023-01-31T05:49:43.028Z,3.90
2023-01-31T05:55:03.228Z,3.90
2023-01-31T06:12:49.641Z,4.00
2023-01-31T06:37:00.181Z,4.00
2023-01-31T06:42:02.411Z,4.00
2023-01-31T06:47:04.479Z,4.00
2023-01-31T06:52:06.415Z,4.00
2023-01-31T06:57:08.407Z,4.00
2023-01-31T07:02:11.409Z,4.00
2023-01-31T07:07:13.289Z,4.00
2023-01-31T07:12:16.145Z,4.00
2023-01-31T07:17:18.032Z,4.00
2023-01-31T07:22:20.017Z,4.00
2023-01-31T07:27:22.038Z,4.00
2023-01-31T07:32:28.999Z,4.00
2023-01-31T07:37:31.090Z,4.00
2023-01-31T07:42:33.422Z,4.00
2023-01-31T07:47:35.666Z,4.10
2023-01-31T07:52:37.593Z,4.10
2023-01-31T07:57:39.683Z,4.20
2023-01-31T08:03:00.222Z,4.20
2023-01-31T08:08:10.589Z,4.30
2023-01-31T08:13:12.545Z,4.30
2023-01-31T08:18:14.445Z,4.40
2023-01-31T08:23:18.148Z,4.50
2023-01-31T08:28:20.007Z,4.50
2023-01-31T08:33:22.578Z,4.60
2023-01-31T08:38:24.528Z,4.70
2023-01-31T08:43:26.389Z,4.80
2023-01-31T08:48:29.055Z,4.80
2023-01-31T08:53:31.485Z,4.80
2023-01-31T08:58:36.655Z,5.00
2023-01-31T09:03:38.711Z,5.00
2023-01-31T09:08:40.534Z,5.10
2023-01-31T09:13:42.390Z,5.20
2023-01-31T09:18:44.294Z,5.20
2023-01-31T09:23:47.019Z,5.30
2023-01-31T09:28:51.001Z,5.30
2023-01-31T09:33:54.485Z,5.40
2023-01-31T09:38:57.149Z,5.40
2023-01-31T09:44:04.758Z,5.50
2023-01-31T09:49:13.515Z,5.70
2023-01-31T09:54:22.219Z,5.70
2023-01-31T09:59:29.904Z,5.80
2023-01-31T10:05:03.420Z,5.90
2023-01-31T10:10:39.053Z,5.90
2023-01-31T10:15:51.251Z,6.00
2023-01-31T10:20:57.069Z,6.00
2023-01-31T10:26:04.901Z,6.10
2023-01-31T10:31:34.211Z,6.10
2023-01-31T10:37:02.321Z,6.20
2023-01-31T10:42:04.139Z,6.20
2023-01-31T10:47:13.107Z,6.30
2023-01-31T10:52:23.309Z,6.40
2023-01-31T10:57:25.254Z,6.50
2023-01-31T11:02:29.036Z,6.60
2023-01-31T11:07:31.717Z,6.70
2023-01-31T11:12:43.039Z,6.80
2023-01-31T11:17:46.329Z,6.80
2023-01-31T11:22:49.268Z,6.90
2023-01-31T11:28:27.737Z,7.10
2023-01-31T11:34:06.324Z,7.20
2023-01-31T11:39:32.727Z,7.30
2023-01-31T11:44:34.591Z,7.40
2023-01-31T11:49:40.536Z,7.50
2023-01-31T11:55:03.870Z,7.60
2023-01-31T12:00:27.505Z,7.60
2023-01-31T12:05:36.704Z,7.60
2023-01-31T12:10:43.336Z,7.70
2023-01-31T12:15:55.491Z,7.60
2023-01-31T12:21:15.160Z,7.60
2023-01-31T12:26:26.152Z,7.50
2023-01-31T12:31:55.821Z,7.50
2023-01-31T12:37:36.750Z,7.50
2023-01-31T12:42:59.954Z,7.40
2023-01-31T12:48:23.322Z,7.40
2023-01-31T12:53:25.164Z,7.40
2023-01-31T12:58:42.442Z,7.40
2023-01-31T13:03:44.280Z,7.40
2023-01-31T13:09:08.274Z,7.40
2023-01-31T13:14:15.682Z,7.40
2023-01-31T13:19:29.865Z,7.40
2023-01-31T13:24:37.422Z,7.40
2023-01-31T13:29:43.784Z,7.40
2023-01-31T13:34:52.413Z,7.50
2023-01-31T13:40:14.387Z,7.50
2023-01-31T13:45:41.829Z,7.60
2023-01-31T13:51:13.506Z,7.60
2023-01-31T13:56:22.129Z,7.70
2023-01-31T14:01:28.381Z,7.80
2023-01-31T14:06:58.733Z,7.90
2023-01-31T14:12:07.706Z,7.90
2023-01-31T14:17:15.374Z,8.00
2023-01-31T14:22:22.117Z,8.00
2023-01-31T14:27:31.820Z,8.10
2023-01-31T14:32:50.622Z,8.10
2023-01-31T14:38:03.792Z,8.10
2023-01-31T14:43:17.835Z,8.20
2023-01-31T14:48:38.352Z,8.10
2023-01-31T14:53:54.027Z,8.20
2023-01-31T14:58:55.920Z,8.20
2023-01-31T15:03:59.154Z,8.20
2023-01-31T15:09:17.547Z,8.30
2023-01-31T15:14:42.906Z,8.30
2023-01-31T15:19:49.152Z,8.30
2023-01-31T15:24:53.413Z,8.40
2023-01-31T15:30:08.700Z,8.40
2023-01-31T15:35:27.751Z,8.40
2023-01-31T15:40:31.133Z,8.30
2023-01-31T15:45:33.068Z,8.40
2023-01-31T15:50:37.685Z,8.30
2023-01-31T15:55:41.216Z,8.40
2023-01-31T16:00:44.719Z,8.40
2023-01-31T16:05:50.433Z,8.30
2023-01-31T16:10:52.687Z,8.30
2023-01-31T16:15:55.008Z,8.30
2023-01-31T16:20:57.955Z,8.30
2023-01-31T16:26:28.685Z,8.30
2023-01-31T16:31:36.023Z,8.30
2023-01-31T16:36:50.344Z,8.30
2023-01-31T16:41:53.321Z,8.30
2023-01-31T16:46:55.311Z,8.30
2023-01-31T16:51:58.193Z,8.30
2023-01-31T16:57:03.227Z,8.30
2023-01-31T17:02:08.305Z,8.30
2023-01-31T17:07:31.693Z,8.30
2023-01-31T17:12:37.078Z,8.20
2023-01-31T17:17:38.951Z,8.20
2023-01-31T17:22:42.260Z,8.20
2023-01-31T17:27:46.375Z,8.20
2023-01-31T17:32:48.748Z,8.10
2023-01-31T17:37:50.565Z,8.10
2023-01-31T17:42:55.782Z,8.00
2023-01-31T17:47:57.707Z,7.90
2023-01-31T17:52:59.859Z,8.00
2023-01-31T17:58:01.764Z,7.90
2023-01-31T18:16:59.603Z,7.70
2023-01-31T19:07:09.980Z,7.10
2023-01-31T19:24:41.867Z,7.00
2023-01-31T19:42:08.074Z,6.80
2023-01-31T19:48:17.948Z,6.80
